Durham, Arkansas
Current Conditions -  °F | °C
As of 9:53 PM on Saturday 24 Jan 2015 (Local Time) from KFYV Reporting Station
Clear Clear  
Wind Chill: 34°   Ceiling: Unl
Heat Index: 40°   Visibility: 10mi
Dew Point: 32°   Wind: 8mph
Humidity: 73%   Direction: 200°SSW
Pressure: 29.88"   Gusts: NA
Location:  35.9902°N, 94.083°W
Report Text: KFYV 250353Z 20007KT 10SM CLR 04/00 A2988 RMK AO2 SLP123 T00440000
Loading
Personal Weather Stations






























Interactive Weather Map New forecast layout! Learn more

10-Day Weather Forecast

Advertisements
Track Severe Weather on mobile